Time;durP1;ratioP1;P1;durP2;ratioP2;P2;SDS_P1;SDS_P2;PMS_P1;PMS_P2;Temp;Humidity;BMP_temperature;BMP_pressure;BME280_temperature;BME280_humidity;BME280_pressure;Samples;Min_cycle;Max_cycle;Signal;HPM_P1;HPM_P2
2022/03/07 00:01:39;;;;;;;15.80;4.43;;;-4.00;99.90;;;;;;4939764;29;20035;-91
2022/03/07 00:04:05;;;;;;;72.83;36.27;;;-4.10;99.90;;;;;;4923654;29;20047;-94
2022/03/07 00:06:32;;;;;;;33.17;18.27;;;-3.90;99.90;;;;;;4924038;29;20601;-90
2022/03/07 00:08:58;;;;;;;18.97;8.80;;;-4.20;99.90;;;;;;4924108;29;20044;-96
2022/03/07 00:11:24;;;;;;;11.63;5.60;;;-4.30;99.90;;;;;;4924240;29;20137;-91
2022/03/07 00:13:49;;;;;;;9.67;3.73;;;-4.40;99.90;;;;;;4908525;29;20126;-90
2022/03/07 00:16:16;;;;;;;9.67;3.67;;;-4.40;99.90;;;;;;4923778;29;20047;-92
2022/03/07 00:18:42;;;;;;;5.63;3.40;;;-4.50;99.90;;;;;;4925090;29;20050;-90
2022/03/07 00:21:09;;;;;;;7.60;3.00;;;-4.50;99.90;;;;;;4926778;29;20047;-96
2022/03/07 00:23:35;;;;;;;9.47;2.90;;;-4.40;99.90;;;;;;4925116;29;20090;-94
2022/03/07 00:26:01;;;;;;;7.83;2.30;;;-4.30;99.90;;;;;;4924876;29;20492;-90
2022/03/07 00:28:27;;;;;;;4.70;2.10;;;-4.50;99.90;;;;;;4924877;28;20398;-91
2022/03/07 00:30:53;;;;;;;6.13;2.53;;;-3.50;99.90;;;;;;4925175;29;20111;-96
2022/03/07 00:33:19;;;;;;;6.10;1.77;;;-4.50;99.90;;;;;;4925459;29;20114;-92
2022/03/07 00:35:45;;;;;;;7.73;1.70;;;-4.70;99.90;;;;;;4924548;29;20458;-93
2022/03/07 00:38:11;;;;;;;9.70;1.70;;;-4.60;99.90;;;;;;4924867;29;20079;-90
2022/03/07 00:40:37;;;;;;;3.40;1.77;;;-4.70;99.90;;;;;;4940538;29;20054;-90
2022/03/07 00:43:07;;;;;;;2.60;1.87;;;-4.80;99.90;;;;;;4924961;29;20130;-90
2022/03/07 00:45:34;;;;;;;5.10;1.90;;;-4.60;99.90;;;;;;4909900;29;20054;-89
2022/03/07 00:47:59;;;;;;;8.67;1.90;;;-4.30;99.90;;;;;;4940040;29;20039;-96
2022/03/07 00:50:25;;;;;;;8.07;2.43;;;-4.70;99.90;;;;;;4925141;29;20050;-94
2022/03/07 00:52:51;;;;;;;4.03;1.80;;;-4.40;1.00;;;;;;4926004;29;20137;-90
2022/03/07 00:55:17;;;;;;;4.00;1.77;;;-4.90;1.00;;;;;;4948131;29;20070;-93
2022/03/07 00:57:43;;;;;;;5.63;1.90;;;-4.80;1.00;;;;;;4933270;29;20130;-93
2022/03/07 01:00:10;;;;;;;6.87;2.00;;;-4.90;1.00;;;;;;4931392;29;20043;-95
2022/03/07 01:02:38;;;;;;;6.20;1.50;;;-5.00;1.00;;;;;;4948137;29;20513;-96
2022/03/07 01:05:05;;;;;;;5.07;1.70;;;-5.10;1.00;;;;;;4931782;29;20372;-91
2022/03/07 01:07:30;;;;;;;3.70;2.17;;;-5.10;1.00;;;;;;4931253;29;20051;-91
2022/03/07 01:09:56;;;;;;;5.63;2.03;;;-4.00;1.00;;;;;;4931665;29;20558;-96
2022/03/07 01:12:22;;;;;;;8.30;2.00;;;-5.10;1.00;;;;;;4931078;29;20046;-90
2022/03/07 01:14:51;;;;;;;4.70;1.77;;;-5.10;1.00;;;;;;4931251;29;20085;-89
2022/03/07 01:17:17;;;;;;;3.40;1.73;;;-5.10;1.00;;;;;;4931262;29;20047;-96
2022/03/07 01:19:43;;;;;;;4.00;1.70;;;-5.20;1.00;;;;;;4930638;29;20039;-90
2022/03/07 01:22:08;;;;;;;6.40;1.90;;;-5.20;1.00;;;;;;4914606;29;20071;-96
2022/03/07 01:24:36;;;;;;;7.33;2.23;;;-5.30;1.00;;;;;;4946659;29;20043;-96
2022/03/07 01:27:03;;;;;;;3.43;1.50;;;-5.40;1.00;;;;;;4930844;29;20047;-95
2022/03/07 01:29:29;;;;;;;11.00;2.40;;;-5.50;1.00;;;;;;4930222;29;20106;-95
2022/03/07 01:31:55;;;;;;;4.27;1.40;;;-4.60;1.00;;;;;;4930317;29;20047;-96
2022/03/07 01:34:21;;;;;;;4.50;1.73;;;-5.50;1.00;;;;;;4930396;29;20503;-89
2022/03/07 01:36:46;;;;;;;13.03;2.33;;;-5.10;1.00;;;;;;4930855;28;20078;-95
2022/03/07 01:39:12;;;;;;;2.30;1.50;;;-5.60;1.00;;;;;;4930226;29;20047;-95
2022/03/07 01:41:43;;;;;;;6.67;1.77;;;-5.70;1.00;;;;;;4929880;29;20051;-96
2022/03/07 01:44:27;;;;;;;3.93;1.80;;;-5.70;1.00;;;;;;4930754;29;20494;-96
2022/03/07 01:46:53;;;;;;;7.13;2.17;;;-5.80;1.00;;;;;;4930627;29;20046;-90
2022/03/07 01:49:19;;;;;;;7.77;2.57;;;-5.00;1.00;;;;;;4930014;29;20047;-95
2022/03/07 01:51:47;;;;;;;6.83;2.50;;;-5.60;1.00;;;;;;4930616;28;20122;-91
2022/03/07 01:54:15;;;;;;;5.47;2.37;;;-5.50;1.00;;;;;;4929692;29;20126;-91
2022/03/07 01:56:45;;;;;;;3.90;2.10;;;-5.40;1.00;;;;;;4929755;29;20050;-94
2022/03/07 01:59:12;;;;;;;6.57;1.90;;;-5.50;1.00;;;;;;4930089;29;20055;-89
2022/03/07 02:01:39;;;;;;;7.70;1.83;;;-5.50;1.00;;;;;;4930549;29;20406;-96
2022/03/07 02:04:05;;;;;;;5.93;2.43;;;-5.50;1.00;;;;;;4929262;28;20066;-90
2022/03/07 02:06:31;;;;;;;6.87;2.23;;;-5.60;1.00;;;;;;4926140;29;20094;-92
2022/03/07 02:08:58;;;;;;;8.70;2.20;;;-5.70;1.00;;;;;;4926917;29;20446;-95
2022/03/07 02:11:27;;;;;;;9.03;2.50;;;-5.70;1.00;;;;;;4926171;29;20501;-90
2022/03/07 02:13:53;;;;;;;5.13;2.00;;;-5.70;1.00;;;;;;4926062;29;20039;-90
2022/03/07 02:16:20;;;;;;;2.73;1.60;;;-5.30;1.00;;;;;;4926777;29;20111;-90
2022/03/07 02:18:47;;;;;;;6.07;1.53;;;-5.90;1.00;;;;;;4926595;29;20040;-90
2022/03/07 02:21:15;;;;;;;5.40;2.23;;;-4.90;1.00;;;;;;4925209;29;20051;-95
2022/03/07 02:23:42;;;;;;;8.57;2.23;;;-5.90;1.00;;;;;;4925809;29;20047;-96
2022/03/07 02:26:12;;;;;;;4.83;2.03;;;-4.70;1.00;;;;;;4925349;29;20054;-90
2022/03/07 02:28:43;;;;;;;8.43;2.63;;;-5.80;1.00;;;;;;4925536;29;20063;-90
2022/03/07 02:31:19;;;;;;;4.57;1.93;;;-5.70;1.00;;;;;;4925335;29;20055;-90
2022/03/07 02:33:45;;;;;;;10.07;1.97;;;-5.50;1.00;;;;;;4926672;29;20043;-90
2022/03/07 02:36:11;;;;;;;6.17;1.90;;;-5.90;1.00;;;;;;4924798;29;20110;-90
2022/03/07 02:38:37;;;;;;;45.07;2.90;;;-4.70;1.00;;;;;;4910254;29;20387;-90
2022/03/07 02:41:02;;;;;;;1.40;1.00;;;-5.80;1.00;;;;;;4910446;29;20047;-95
2022/03/07 02:43:28;;;;;;;2.60;1.20;;;-5.40;1.00;;;;;;4925415;29;20426;-89
2022/03/07 02:45:55;;;;;;;3.90;1.20;;;-5.70;1.00;;;;;;4926288;29;20054;-96
2022/03/07 02:48:21;;;;;;;3.93;1.20;;;-5.90;1.00;;;;;;4925647;29;20051;-96
2022/03/07 02:50:48;;;;;;;1.67;1.03;;;-5.70;1.00;;;;;;4925542;29;20051;-95
2022/03/07 02:53:14;;;;;;;1.70;0.70;;;-5.90;1.00;;;;;;4925068;29;20181;-90
2022/03/07 02:55:40;;;;;;;5.00;1.03;;;-6.10;1.00;;;;;;4909703;29;21786;-91
2022/03/07 02:58:05;;;;;;;1.97;0.87;;;-6.10;1.00;;;;;;4925138;29;20047;-90
2022/03/07 03:00:34;;;;;;;3.33;1.40;;;-6.20;1.00;;;;;;4909437;29;20491;-90
2022/03/07 03:03:00;;;;;;;20.80;1.43;;;-5.30;1.00;;;;;;4924976;29;20053;-91
2022/03/07 03:05:26;;;;;;;7.67;2.03;;;-6.10;1.00;;;;;;4924830;29;20050;-94
2022/03/07 03:07:52;;;;;;;4.00;1.20;;;-5.80;1.00;;;;;;4925893;29;20053;-92
2022/03/07 03:10:19;;;;;;;1.23;0.83;;;-5.00;1.00;;;;;;4925330;29;20073;-96
2022/03/07 03:12:46;;;;;;;1.27;0.70;;;-5.90;1.00;;;;;;4925366;29;20388;-96
2022/03/07 03:15:12;;;;;;;0.73;0.50;;;-5.40;1.00;;;;;;4924672;29;20078;-90
2022/03/07 03:17:40;;;;;;;1.30;0.60;;;-5.90;1.00;;;;;;4924302;29;20047;-91
2022/03/07 03:20:09;;;;;;;11.87;1.77;;;-6.10;1.00;;;;;;4924140;29;20169;-96
2022/03/07 03:22:35;;;;;;;3.13;2.07;;;-6.00;1.00;;;;;;4924173;29;20118;-95
2022/03/07 03:25:01;;;;;;;19.77;2.77;;;-6.00;1.00;;;;;;4908775;29;20145;-92
2022/03/07 03:27:29;;;;;;;29.37;5.33;;;-5.40;1.00;;;;;;4908983;29;20050;-92
2022/03/07 03:29:55;;;;;;;4.53;2.13;;;-5.90;1.00;;;;;;4924261;29;20067;-96
2022/03/07 03:32:21;;;;;;;6.27;1.80;;;-5.90;1.00;;;;;;4924330;29;20043;-90
2022/03/07 03:34:47;;;;;;;3.20;2.03;;;-5.20;1.00;;;;;;4924191;29;20495;-90
2022/03/07 03:37:13;;;;;;;4.37;1.83;;;-6.20;1.00;;;;;;4924760;29;20053;-91
2022/03/07 03:39:39;;;;;;;6.60;1.90;;;-6.00;1.00;;;;;;4923859;29;20074;-90
2022/03/07 03:42:05;;;;;;;16.30;2.40;;;-5.30;1.00;;;;;;4908520;29;20039;-90
2022/03/07 03:44:31;;;;;;;4.10;2.00;;;-5.80;1.00;;;;;;4893189;29;20050;-95
2022/03/07 03:46:58;;;;;;;2.50;1.77;;;-6.30;1.00;;;;;;4892972;29;20079;-91
2022/03/07 03:49:24;;;;;;;3.77;1.67;;;-5.80;1.00;;;;;;4924039;29;20082;-90
2022/03/07 03:51:50;;;;;;;2.10;1.10;;;-5.60;1.00;;;;;;4923741;29;20074;-90
2022/03/07 03:54:16;;;;;;;1.27;1.00;;;-6.20;1.00;;;;;;4907931;29;20138;-90
2022/03/07 03:56:42;;;;;;;2.43;1.03;;;-6.40;1.00;;;;;;4923874;29;20089;-90
2022/03/07 03:59:07;;;;;;;9.47;1.97;;;-6.20;1.00;;;;;;4923515;29;20134;-90
2022/03/07 04:01:35;;;;;;;6.90;1.40;;;-6.50;1.00;;;;;;4924294;29;20066;-96
2022/03/07 04:04:01;;;;;;;3.27;0.70;;;-6.40;1.00;;;;;;4924250;29;20062;-95
2022/03/07 04:06:27;;;;;;;2.10;1.20;;;-6.50;1.00;;;;;;4924175;29;20055;-90
2022/03/07 04:09:08;;;;;;;3.17;1.30;;;-5.90;1.00;;;;;;4923852;29;20035;-91
2022/03/07 04:11:34;;;;;;;1.77;0.93;;;-6.40;1.00;;;;;;4909248;29;20130;-94
2022/03/07 04:14:02;;;;;;;2.73;0.80;;;-6.30;1.00;;;;;;4923623;29;20486;-90
2022/03/07 04:16:28;;;;;;;2.13;0.70;;;-6.10;1.00;;;;;;4907677;29;20043;-96
2022/03/07 04:18:54;;;;;;;1.67;1.00;;;-6.10;1.00;;;;;;4924414;29;20131;-93
2022/03/07 04:21:20;;;;;;;2.30;1.10;;;-6.20;1.00;;;;;;4923268;29;20078;-90
2022/03/07 04:23:46;;;;;;;1.23;0.90;;;-6.20;1.00;;;;;;4923674;29;20073;-95
2022/03/07 04:26:13;;;;;;;2.30;0.70;;;-5.70;1.00;;;;;;4923772;29;20138;-91
2022/03/07 04:28:39;;;;;;;1.40;0.90;;;-6.30;1.00;;;;;;4906855;28;20141;-93
2022/03/07 04:31:05;;;;;;;2.63;1.17;;;-6.30;1.00;;;;;;4923421;29;20446;-96
2022/03/07 04:33:31;;;;;;;2.03;1.00;;;-6.40;1.00;;;;;;4924216;29;20055;-90
2022/03/07 04:35:58;;;;;;;5.37;1.33;;;-5.70;1.00;;;;;;4923031;29;20047;-91
2022/03/07 04:38:26;;;;;;;2.00;1.53;;;-6.60;1.00;;;;;;4892684;29;20043;-90
2022/03/07 04:40:52;;;;;;;5.23;1.80;;;-6.60;1.00;;;;;;4923247;29;20086;-94
2022/03/07 04:43:19;;;;;;;1.30;1.20;;;-6.50;1.00;;;;;;4907646;29;20047;-95
2022/03/07 04:45:45;;;;;;;1.90;1.20;;;-6.90;1.00;;;;;;4923422;29;20047;-96
2022/03/07 04:48:10;;;;;;;0.90;0.70;;;-6.60;1.00;;;;;;4923961;29;20051;-96
2022/03/07 04:50:36;;;;;;;0.30;0.20;;;-6.90;1.00;;;;;;4907671;29;20051;-91
2022/03/07 04:53:02;;;;;;;3.53;0.80;;;-6.90;1.00;;;;;;4923246;29;20051;-91
2022/03/07 04:55:28;;;;;;;5.27;1.07;;;-6.80;1.00;;;;;;4922986;29;20054;-90
2022/03/07 04:57:54;;;;;;;4.47;1.20;;;-6.30;1.00;;;;;;4924339;29;20110;-95
2022/03/07 05:00:20;;;;;;;6.00;1.70;;;-7.00;1.00;;;;;;4922740;29;20047;-90
2022/03/07 05:02:45;;;;;;;2.80;1.90;;;-6.80;1.00;;;;;;4907404;29;20043;-96
2022/03/07 05:05:11;;;;;;;6.53;2.63;;;-6.80;1.00;;;;;;4923239;29;20047;-91
2022/03/07 05:07:37;;;;;;;5.43;2.30;;;-6.60;1.00;;;;;;4923551;29;20051;-91
2022/03/07 05:10:04;;;;;;;2.77;1.73;;;-6.50;1.00;;;;;;4923199;29;20053;-90
2022/03/07 05:12:31;;;;;;;4.17;1.30;;;-6.50;1.00;;;;;;4923099;29;20210;-91
2022/03/07 05:14:59;;;;;;;4.57;1.70;;;-4.10;1.00;;;;;;4923403;29;20043;-95
2022/03/07 05:17:25;;;;;;;2.83;1.47;;;-5.10;1.00;;;;;;4923158;29;20083;-95
2022/03/07 05:19:51;;;;;;;2.83;1.30;;;-6.30;1.00;;;;;;4922740;29;20054;-90
2022/03/07 05:22:17;;;;;;;4.17;1.37;;;-6.70;1.00;;;;;;4922782;29;20069;-90
2022/03/07 05:24:43;;;;;;;2.23;1.10;;;-6.70;1.00;;;;;;4922611;29;20039;-91
2022/03/07 05:27:09;;;;;;;1.67;0.90;;;-6.80;1.00;;;;;;4924591;29;20109;-95
2022/03/07 05:29:36;;;;;;;3.50;1.70;;;-6.50;1.00;;;;;;4923111;29;20055;-91
2022/03/07 05:32:03;;;;;;;3.13;1.90;;;-5.70;1.00;;;;;;4923203;29;20047;-93
2022/03/07 05:34:29;;;;;;;1.80;1.13;;;-6.70;1.00;;;;;;4923172;29;20048;-91
2022/03/07 05:36:55;;;;;;;1.93;1.30;;;-6.70;1.00;;;;;;4906707;29;20047;-90
2022/03/07 05:39:21;;;;;;;2.47;1.40;;;-6.70;1.00;;;;;;4909698;29;20057;-95
2022/03/07 05:41:47;;;;;;;2.70;1.20;;;-6.50;1.00;;;;;;4911399;29;20131;-93
2022/03/07 05:44:13;;;;;;;2.40;1.10;;;-6.70;1.00;;;;;;4928005;29;20505;-94
2022/03/07 05:46:38;;;;;;;2.23;1.27;;;-6.80;1.00;;;;;;4927158;29;20570;-91
2022/03/07 05:49:04;;;;;;;1.77;1.17;;;-6.90;1.00;;;;;;4927159;29;20049;-92
2022/03/07 05:51:31;;;;;;;2.00;1.13;;;-6.90;1.00;;;;;;4926738;29;20248;-96
2022/03/07 05:53:57;;;;;;;16.83;3.77;;;-6.80;1.00;;;;;;4926672;29;20487;-90
2022/03/07 05:56:23;;;;;;;76.30;6.83;;;-6.30;1.00;;;;;;4926511;29;20043;-95
2022/03/07 05:58:49;;;;;;;4.13;1.47;;;-6.50;1.00;;;;;;4926637;29;20043;-90
2022/03/07 06:01:15;;;;;;;2.40;1.50;;;-6.70;1.00;;;;;;4926559;29;20051;-96
2022/03/07 06:03:43;;;;;;;6.43;1.70;;;-6.70;1.00;;;;;;4911291;29;20048;-90
2022/03/07 06:06:09;;;;;;;4.87;1.90;;;-6.00;1.00;;;;;;4926222;29;20178;-95
2022/03/07 06:08:37;;;;;;;5.00;2.00;;;-6.40;1.00;;;;;;4926208;29;20071;-91
2022/03/07 06:11:03;;;;;;;2.93;1.87;;;-6.20;1.00;;;;;;4926134;29;20047;-92
2022/03/07 06:13:28;;;;;;;3.00;1.90;;;-5.20;1.00;;;;;;4927213;29;20054;-92
2022/03/07 06:15:54;;;;;;;7.23;2.33;;;-6.10;1.00;;;;;;4927389;29;20054;-96
2022/03/07 06:18:20;;;;;;;10.50;4.30;;;-6.00;1.00;;;;;;4929222;29;20129;-91
2022/03/07 06:20:46;;;;;;;8.60;3.13;;;-4.80;16.50;;;;;;4913651;29;20402;-92
2022/03/07 06:23:12;;;;;;;6.17;2.50;;;-4.90;58.60;;;;;;4927029;29;20110;-91
2022/03/07 06:25:38;;;;;;;7.70;2.90;;;-5.70;80.10;;;;;;4929223;29;20491;-92
2022/03/07 06:28:04;;;;;;;8.40;3.30;;;-5.40;68.20;;;;;;4911735;29;20138;-92
2022/03/07 06:30:30;;;;;;;8.07;3.00;;;-5.60;83.60;;;;;;4927891;29;20055;-93
2022/03/07 06:32:56;;;;;;;6.43;3.10;;;-4.60;81.20;;;;;;4926829;29;20114;-92
2022/03/07 06:35:23;;;;;;;12.13;4.53;;;-5.50;77.20;;;;;;4910187;29;20047;-96
2022/03/07 06:37:50;;;;;;;7.87;3.17;;;-5.60;71.30;;;;;;4928733;29;20054;-92
2022/03/07 06:40:20;;;;;;;8.23;3.23;;;-5.00;62.50;;;;;;4927607;29;20148;-91
2022/03/07 06:42:49;;;;;;;6.27;3.63;;;-5.70;53.90;;;;;;4910823;29;20483;-96
2022/03/07 06:45:17;;;;;;;10.17;3.93;;;-5.80;46.40;;;;;;4926558;29;20081;-92
2022/03/07 06:47:44;;;;;;;8.77;3.90;;;-5.80;40.90;;;;;;4926946;29;20121;-93
2022/03/07 06:50:11;;;;;;;7.33;3.73;;;-5.70;38.80;;;;;;4926305;29;20487;-96
2022/03/07 06:52:37;;;;;;;9.67;3.77;;;-5.70;34.40;;;;;;4926557;29;20049;-92
2022/03/07 06:55:03;;;;;;;9.57;4.97;;;-5.50;42.70;;;;;;4926787;29;20078;-94
2022/03/07 06:57:29;;;;;;;9.90;4.83;;;-5.30;90.80;;;;;;4927733;29;20142;-92
2022/03/07 06:59:55;;;;;;;12.73;4.83;;;-5.10;82.70;;;;;;4927911;29;20142;-92
2022/03/07 07:02:21;;;;;;;12.63;4.47;;;-5.20;78.70;;;;;;4926226;29;20043;-96
2022/03/07 07:04:47;;;;;;;9.47;5.00;;;-5.20;74.60;;;;;;4911726;29;20415;-92
2022/03/07 07:07:14;;;;;;;7.93;4.30;;;-5.20;70.70;;;;;;4926831;29;20082;-93
2022/03/07 07:09:41;;;;;;;7.33;4.20;;;-5.20;65.20;;;;;;4926832;29;20524;-92
2022/03/07 07:12:08;;;;;;;11.63;4.17;;;-5.20;59.70;;;;;;4926089;29;20376;-91
2022/03/07 07:14:34;;;;;;;10.03;5.13;;;-5.10;62.40;;;;;;4925708;29;20051;-96
2022/03/07 07:17:02;;;;;;;8.33;3.70;;;-5.00;63.00;;;;;;4909440;29;20094;-96
2022/03/07 07:19:31;;;;;;;6.40;3.27;;;-5.00;58.70;;;;;;4926207;29;20050;-96
2022/03/07 07:21:57;;;;;;;9.37;3.80;;;-5.00;52.70;;;;;;4925979;29;20093;-90
2022/03/07 07:24:23;;;;;;;8.83;3.90;;;-5.00;48.70;;;;;;4924768;29;20061;-96
2022/03/07 07:26:48;;;;;;;7.00;3.77;;;-4.70;50.90;;;;;;4909147;29;20053;-92
2022/03/07 07:29:14;;;;;;;11.83;4.17;;;-4.90;54.50;;;;;;4909214;29;20055;-91
2022/03/07 07:31:40;;;;;;;5.90;3.60;;;-4.80;59.50;;;;;;4908255;29;20066;-95
2022/03/07 07:34:07;;;;;;;14.13;7.20;;;-4.80;64.80;;;;;;4908193;29;20070;-95
2022/03/07 07:36:32;;;;;;;12.73;5.40;;;-4.60;66.60;;;;;;4908497;29;20410;-96
2022/03/07 07:38:58;;;;;;;12.27;6.57;;;-4.00;75.20;;;;;;4893173;29;20093;-91
2022/03/07 07:41:24;;;;;;;12.73;6.27;;;-4.30;87.50;;;;;;4924188;29;20129;-96
2022/03/07 07:43:50;;;;;;;11.63;5.90;;;-4.10;95.00;;;;;;4908354;29;20526;-93
2022/03/07 07:46:18;;;;;;;15.27;6.97;;;-4.00;99.00;;;;;;4923837;29;20050;-95
2022/03/07 07:48:43;;;;;;;15.23;7.43;;;-3.90;99.90;;;;;;4924186;29;20043;-91
2022/03/07 07:51:09;;;;;;;14.43;6.30;;;-3.50;99.90;;;;;;4923644;29;20509;-92
2022/03/07 07:53:35;;;;;;;10.80;6.20;;;-3.60;99.90;;;;;;4908864;29;20045;-91
2022/03/07 07:56:03;;;;;;;15.47;6.37;;;-3.40;99.90;;;;;;4908043;29;20098;-96
2022/03/07 07:58:29;;;;;;;19.53;6.50;;;-3.30;99.90;;;;;;4955810;29;20047;-96
2022/03/07 08:00:55;;;;;;;14.07;6.63;;;-2.10;99.90;;;;;;4923916;29;20145;-91
2022/03/07 08:03:30;;;;;;;17.17;6.70;;;-2.70;99.90;;;;;;4908267;29;20051;-94
2022/03/07 08:05:56;;;;;;;18.33;6.80;;;-2.50;99.90;;;;;;4908340;29;20046;-92
2022/03/07 08:08:22;;;;;;;16.10;6.80;;;-2.30;99.90;;;;;;4908706;29;20058;-94
2022/03/07 08:10:48;;;;;;;19.83;7.30;;;-2.10;99.90;;;;;;4908428;29;20080;-96
2022/03/07 08:13:14;;;;;;;16.37;6.87;;;-1.80;99.90;;;;;;4892843;29;20043;-96
2022/03/07 08:15:40;;;;;;;16.27;7.77;;;-1.60;99.90;;;;;;4907561;29;20050;-96
2022/03/07 08:18:07;;;;;;;17.50;6.93;;;-1.30;99.90;;;;;;4908442;29;20198;-96
2022/03/07 08:20:33;;;;;;;13.50;7.37;;;-1.10;99.90;;;;;;4923697;29;20039;-92
2022/03/07 08:22:59;;;;;;;15.90;6.27;;;-1.00;99.90;;;;;;4923499;29;20039;-93
2022/03/07 08:25:26;;;;;;;15.83;6.33;;;-0.90;99.90;;;;;;4923233;29;20043;-95
2022/03/07 08:27:52;;;;;;;16.57;7.10;;;-0.70;99.90;;;;;;4923246;29;20043;-96
2022/03/07 08:30:20;;;;;;;14.17;6.37;;;-0.50;99.90;;;;;;4922991;29;20058;-93
2022/03/07 08:32:46;;;;;;;12.67;7.07;;;0.10;99.90;;;;;;4923569;29;20045;-93
2022/03/07 08:35:13;;;;;;;16.77;7.03;;;-0.30;99.90;;;;;;4923282;29;20487;-93
2022/03/07 08:37:40;;;;;;;16.93;7.53;;;-0.10;99.90;;;;;;4923243;29;20083;-96
2022/03/07 08:40:08;;;;;;;9.67;5.33;;;0.30;99.90;;;;;;4923065;29;20051;-93
2022/03/07 08:42:34;;;;;;;11.23;5.60;;;0.10;99.90;;;;;;4922959;29;20055;-96
2022/03/07 08:45:00;;;;;;;17.97;6.33;;;0.20;99.90;;;;;;4923397;29;20462;-96
2022/03/07 08:47:26;;;;;;;11.70;6.10;;;0.40;99.90;;;;;;4923048;29;20047;-94
2022/03/07 08:49:53;;;;;;;14.27;7.23;;;0.50;99.90;;;;;;4923127;29;20047;-96
2022/03/07 08:52:19;;;;;;;16.43;6.80;;;0.70;99.90;;;;;;4906977;29;20047;-94
2022/03/07 08:54:46;;;;;;;11.23;6.67;;;0.80;99.90;;;;;;4922996;29;20508;-95
2022/03/07 08:57:12;;;;;;;11.47;6.57;;;1.20;99.90;;;;;;4922954;29;20047;-94
2022/03/07 08:59:39;;;;;;;10.07;6.33;;;1.20;99.90;;;;;;4907420;29;20066;-94
2022/03/07 09:02:05;;;;;;;13.87;6.30;;;1.20;99.90;;;;;;4923379;29;20145;-94
2022/03/07 09:04:31;;;;;;;17.67;7.50;;;1.30;99.90;;;;;;4923102;29;20051;-93
2022/03/07 09:06:57;;;;;;;16.87;7.47;;;1.40;99.90;;;;;;4922978;29;20074;-94
2022/03/07 09:09:23;;;;;;;12.20;6.80;;;1.50;99.90;;;;;;4923039;29;20078;-96
2022/03/07 09:11:49;;;;;;;17.10;6.90;;;1.60;99.90;;;;;;4907414;29;20044;-96
2022/03/07 09:14:16;;;;;;;12.80;6.70;;;2.30;99.90;;;;;;4923679;29;20491;-94
2022/03/07 09:16:42;;;;;;;13.63;6.77;;;1.80;99.90;;;;;;4910963;29;20047;-96
2022/03/07 09:19:09;;;;;;;14.67;7.63;;;1.90;99.90;;;;;;4895736;29;20126;-94
2022/03/07 09:21:35;;;;;;;14.10;7.10;;;2.00;99.90;;;;;;4910915;29;20134;-96
2022/03/07 09:24:01;;;;;;;9.83;7.00;;;2.10;99.90;;;;;;4958680;29;20060;-94
2022/03/07 09:26:27;;;;;;;10.80;5.90;;;2.10;99.90;;;;;;4928077;29;20087;-95
2022/03/07 09:28:53;;;;;;;14.03;7.97;;;2.20;99.90;;;;;;4943158;28;20510;-95
2022/03/07 09:31:19;;;;;;;11.97;6.40;;;2.30;99.90;;;;;;4929597;29;20560;-96
2022/03/07 09:33:46;;;;;;;13.53;6.03;;;2.30;99.90;;;;;;4929918;29;20418;-96
2022/03/07 09:36:12;;;;;;;16.43;6.87;;;2.30;99.90;;;;;;4930645;29;20075;-95
2022/03/07 09:38:38;;;;;;;16.57;7.50;;;2.30;99.90;;;;;;4928057;29;20043;-94
2022/03/07 09:41:05;;;;;;;12.90;6.83;;;2.50;99.90;;;;;;4931235;29;20502;-95
2022/03/07 09:43:31;;;;;;;13.00;7.70;;;2.90;99.90;;;;;;4930613;29;20043;-96
2022/03/07 09:45:58;;;;;;;13.37;6.13;;;2.50;99.90;;;;;;4916451;29;20051;-96
2022/03/07 09:48:26;;;;;;;15.93;7.17;;;2.70;99.90;;;;;;4934591;29;20110;-96
2022/03/07 09:50:52;;;;;;;12.83;6.23;;;2.70;99.90;;;;;;4936491;29;20047;-95
2022/03/07 09:53:19;;;;;;;11.07;5.87;;;2.90;99.90;;;;;;4916146;29;20569;-95
2022/03/07 09:55:46;;;;;;;11.07;5.80;;;2.90;99.90;;;;;;4917193;29;20121;-96
2022/03/07 09:58:12;;;;;;;8.97;5.20;;;3.00;99.90;;;;;;4919861;29;20046;-96
2022/03/07 10:00:46;;;;;;;17.13;6.03;;;3.20;99.90;;;;;;4934149;29;20039;-96
2022/03/07 10:03:22;;;;;;;16.07;5.47;;;3.30;99.90;;;;;;4934771;29;20071;-96
2022/03/07 10:05:51;;;;;;;16.63;6.80;;;3.40;99.90;;;;;;4937329;29;20106;-96
2022/03/07 10:08:29;;;;;;;11.75;5.45;;;3.50;99.90;;;;;;4932735;29;20047;-96
2022/03/07 10:10:56;;;;;;;11.10;4.53;;;3.80;99.90;;;;;;4935732;29;20082;-96
2022/03/07 10:13:26;;;;;;;12.98;3.97;;;4.10;99.90;;;;;;4914680;29;20062;-96
2022/03/07 10:15:59;;;;;;;14.68;5.63;;;4.60;99.90;;;;;;4938762;29;20035;-96
2022/03/07 10:18:27;;;;;;;14.18;4.40;;;5.20;99.90;;;;;;4939411;29;20027;-96
2022/03/07 10:20:55;;;;;;;10.57;2.42;;;6.30;99.90;;;;;;4919651;29;20040;-96
2022/03/07 10:23:25;;;;;;;8.05;1.98;;;7.20;74.70;;;;;;4935480;29;20058;-96
2022/03/07 10:25:52;;;;;;;3.97;1.40;;;8.30;59.90;;;;;;4935674;29;20027;-96
2022/03/07 10:28:18;;;;;;;7.28;1.30;;;9.30;27.80;;;;;;5094645;23;20090;-96
2022/03/07 10:30:44;;;;;;;8.20;1.27;;;9.90;1.00;;;;;;4902746;29;20091;-96
2022/03/07 10:33:28;;;;;;;;;;;;;;;;;;;;;
2022/03/07 10:38:57;;;;;;;6.50;1.08;;;10.00;99.90;;;;;;5027752;23;20046;-96
2022/03/07 10:41:47;;;;;;;7.05;1.08;;;9.90;99.90;;;;;;4984766;23;20487;-95
2022/03/07 10:44:30;;;;;;;5.13;1.30;;;10.00;1.00;;;;;;5000075;23;20105;-96
2022/03/07 10:47:14;;;;;;;8.15;1.20;;;9.90;99.90;;;;;;5003683;23;20059;-96
2022/03/07 10:49:52;;;;;;;3.92;1.15;;;9.30;99.20;;;;;;4972805;23;20066;-95
2022/03/07 10:52:20;;;;;;;2.17;0.90;;;9.20;99.90;;;;;;4936623;29;20307;-95
2022/03/07 10:54:49;;;;;;;7.55;1.42;;;9.40;99.90;;;;;;4981713;23;20086;-96
2022/03/07 11:00:15;;;;;;;7.78;1.40;;;10.90;99.90;;;;;;4987503;23;20081;-95
2022/03/07 11:02:45;;;;;;;3.05;1.05;;;10.70;99.90;;;;;;5020891;23;20157;-94
2022/03/07 11:05:16;;;;;;;7.25;1.90;;;10.70;99.90;;;;;;4952027;28;20122;-96
2022/03/07 11:07:58;;;;;;;6.65;1.70;;;10.10;99.90;;;;;;5319606;23;20078;-95
2022/03/07 11:10:45;;;;;;;6.65;3.10;;;10.50;1.00;;;;;;4976886;28;20060;-96
2022/03/07 11:13:34;;;;;;;4.22;1.08;;;11.20;99.90;;;;;;4987695;28;20124;-96
2022/03/07 11:16:04;;;;;;;4.57;1.05;;;12.10;1.00;;;;;;4977962;28;20057;-96
2022/03/07 11:18:32;;;;;;;4.97;1.10;;;13.00;1.00;;;;;;4977421;28;20050;-95
2022/03/07 11:21:00;;;;;;;5.38;1.02;;;13.60;99.90;;;;;;4997603;23;20054;-95
2022/03/07 11:23:26;;;;;;;3.70;1.23;;;13.90;1.00;;;;;;4964408;28;20058;-95
2022/03/07 11:25:58;;;;;;;2.03;0.80;;;13.50;99.90;;;;;;4972997;28;20026;-95
2022/03/07 11:28:26;;;;;;;5.72;1.08;;;13.60;99.90;;;;;;4969721;28;20093;-96
2022/03/07 11:30:52;;;;;;;3.67;1.10;;;13.90;1.00;;;;;;4999446;23;20061;-96
2022/03/07 11:33:25;;;;;;;3.67;0.88;;;13.90;1.00;;;;;;4955027;28;20062;-94
2022/03/07 11:35:52;;;;;;;;;;;13.80;1.00;;;;;;5082700;23;20042;-96
2022/03/07 11:41:21;;;;;;;6.47;1.38;;;14.00;7.60;;;;;;1033375;23;20236;-94
2022/03/07 11:44:04;;;;;;;4.07;1.05;;;13.70;1.00;;;;;;5157568;23;20074;31
2022/03/07 11:46:36;;;;;;;2.05;0.90;;;12.50;1.00;;;;;;4968057;23;20035;-94
2022/03/07 11:49:27;;;;;;;2.90;0.95;;;11.10;1.00;;;;;;2912209;23;20222;-93
2022/03/07 11:52:03;;;;;;;4.72;1.50;;;10.50;1.00;;;;;;4928874;29;20059;-94
2022/03/07 12:00:19;;;;;;;3.53;0.85;;;10.70;1.00;;;;;;5074077;23;20051;-93
2022/03/07 12:02:55;;;;;;;3.63;0.93;;;10.10;1.00;;;;;;4945799;23;20066;-96
2022/03/07 12:05:32;;;;;;;2.17;0.70;;;10.30;1.00;;;;;;4930603;29;20055;-95
2022/03/07 12:09:04;;;;;;;;;;;;;;;;;;;;;
2022/03/07 12:15:15;;;;;;;4.88;2.17;;;13.50;1.00;;;;;;5137597;23;20116;-93
2022/03/07 12:17:41;;;;;;;3.45;1.15;;;12.80;1.00;;;;;;5029569;23;20055;-93
2022/03/07 12:20:22;;;;;;;2.70;1.40;;;12.00;1.00;;;;;;4188634;23;21501;31
2022/03/07 12:22:49;;;;;;;3.83;0.98;;;11.30;1.00;;;;;;4964318;23;20279;-93
2022/03/07 12:25:49;;;;;;;3.15;0.60;;;10.80;1.00;;;;;;5061029;23;20978;31
2022/03/07 12:28:15;;;;;;;1.83;0.68;;;10.40;1.00;;;;;;4889546;29;20058;-96
2022/03/07 12:30:41;;;;;;;3.58;0.93;;;10.70;1.00;;;;;;4893737;29;20066;-93
2022/03/07 12:33:13;;;;;;;2.42;0.70;;;11.60;1.00;;;;;;4891385;29;20072;-96
2022/03/07 12:35:39;;;;;;;2.55;1.00;;;12.50;1.00;;;;;;4892172;29;20055;-96
2022/03/07 12:38:07;;;;;;;1.27;0.50;;;13.60;1.00;;;;;;4886903;29;20043;-94
2022/03/07 12:40:35;;;;;;;3.35;0.88;;;14.10;1.00;;;;;;4890691;29;20035;-94
2022/03/07 12:43:01;;;;;;;2.67;0.98;;;15.00;1.00;;;;;;4945039;23;20094;-95
2022/03/07 12:45:27;;;;;;;2.47;0.70;;;15.70;1.00;;;;;;4924362;29;20051;-95
2022/03/07 12:47:54;;;;;;;3.47;0.90;;;16.20;1.00;;;;;;4948651;23;20063;-93
2022/03/07 12:50:28;;;;;;;1.90;0.70;;;16.50;1.00;;;;;;5076077;23;20054;-96
2022/03/07 12:52:54;;;;;;;2.53;0.90;;;15.80;1.00;;;;;;4914534;29;20051;-93
2022/03/07 12:58:18;;;;;;;2.10;0.80;;;13.40;1.00;;;;;;4924782;29;20054;-96
2022/03/07 13:00:49;;;;;;;3.53;0.80;;;12.70;1.00;;;;;;4925190;29;20058;-96
2022/03/07 13:03:15;;;;;;;3.83;0.80;;;13.10;1.00;;;;;;4922655;29;20774;-95
2022/03/07 13:05:41;;;;;;;2.95;0.82;;;13.40;1.00;;;;;;4929255;29;20050;-94
2022/03/07 13:08:07;;;;;;;4.15;1.05;;;13.40;1.00;;;;;;4912895;29;20052;-95
2022/03/07 13:10:35;;;;;;;3.75;0.80;;;12.80;1.00;;;;;;3533572;23;21557;-91
2022/03/07 13:13:04;;;;;;;2.15;1.00;;;12.10;1.00;;;;;;4889023;29;20059;-95
2022/03/07 13:15:39;;;;;;;3.78;1.13;;;11.70;1.00;;;;;;4923826;29;20051;-94
2022/03/07 13:18:06;;;;;;;3.08;0.88;;;11.80;1.00;;;;;;4890176;29;20507;-94